createdAt,value
2022-11-24T04:58:50.355Z,2.65
2022-11-24T05:01:19.154Z,2.22
2022-11-24T05:03:50.174Z,2.25
2022-11-24T05:06:18.792Z,2.25
2022-11-24T14:17:21.361Z,5.20
2022-11-24T14:19:55.439Z,4.82
2022-11-24T14:22:28.623Z,5.82
2022-11-24T14:25:02.389Z,4.25
2022-11-24T14:27:34.276Z,5.07
2022-11-24T14:30:07.626Z,4.63
2022-11-24T14:32:39.744Z,5.20
2022-11-24T14:35:25.071Z,4.28
2022-11-24T14:38:05.445Z,4.38
2022-11-24T14:40:43.541Z,4.32
2022-11-24T14:43:23.934Z,4.57
2022-11-24T14:45:57.100Z,4.75
2022-11-24T14:48:30.610Z,5.07
2022-11-24T14:51:13.515Z,4.00
2022-11-24T14:53:44.540Z,4.82
2022-11-24T14:56:26.213Z,4.43
2022-11-24T14:58:55.638Z,4.47
2022-11-24T15:01:33.049Z,4.20
2022-11-24T15:05:00.879Z,4.20
2022-11-24T15:07:25.788Z,4.57
2022-11-24T15:10:00.813Z,4.03
2022-11-24T15:12:35.048Z,4.50
2022-11-24T15:15:08.662Z,4.85
2022-11-24T15:17:47.691Z,4.70
2022-11-24T15:20:25.752Z,4.00
2022-11-24T15:23:21.742Z,3.83
2022-11-24T15:25:51.652Z,4.30
2022-11-24T15:28:24.946Z,4.55
2022-11-24T15:30:55.769Z,3.92
2022-11-24T15:33:25.504Z,4.93
2022-11-24T15:35:56.319Z,3.78
2022-11-24T15:38:25.286Z,4.32
2022-11-24T15:40:57.177Z,4.72
2022-11-24T15:43:31.761Z,4.65
2022-11-24T15:46:02.674Z,4.28
2022-11-24T15:48:33.032Z,4.53
2022-11-24T15:51:08.204Z,4.20
2022-11-24T15:53:41.139Z,5.18
2022-11-24T15:56:15.566Z,7.03
2022-11-24T15:58:44.337Z,4.78
2022-11-24T16:01:14.547Z,4.70
2022-11-24T16:03:48.179Z,5.28
2022-11-24T16:06:25.156Z,4.53
2022-11-24T16:08:55.311Z,5.05
2022-11-24T16:11:24.428Z,5.07
2022-11-24T16:13:54.563Z,4.85
2022-11-24T16:16:25.615Z,5.57
2022-11-24T16:18:55.017Z,5.10
2022-11-24T16:21:25.330Z,5.13
2022-11-24T16:23:54.717Z,5.03
2022-11-24T16:34:23.142Z,5.43
2022-11-24T16:36:53.950Z,5.38
2022-11-24T16:39:23.269Z,5.00
2022-11-24T16:41:52.038Z,5.00
2022-11-24T16:44:21.410Z,5.30
2022-11-24T16:46:50.192Z,5.47
2022-11-24T16:49:19.094Z,5.00
2022-11-24T16:51:47.773Z,4.63
2022-11-24T16:54:19.132Z,3.90
2022-11-24T16:56:51.480Z,5.13
2022-11-24T16:59:20.683Z,4.20
2022-11-24T17:01:50.893Z,4.80
2022-11-24T17:04:19.721Z,5.10
2022-11-24T17:06:48.792Z,5.07
2022-11-24T17:09:19.604Z,5.63
2022-11-24T17:11:48.445Z,5.72
2022-11-24T17:14:17.844Z,6.32
2022-11-24T17:16:46.876Z,6.07
2022-11-24T17:19:15.596Z,5.18
2022-11-24T17:21:44.807Z,5.50
2022-11-24T17:24:17.972Z,6.35
2022-11-24T17:26:51.200Z,5.55
2022-11-24T17:29:20.644Z,5.10
2022-11-24T17:31:49.916Z,5.22
2022-11-24T17:34:19.054Z,5.47
2022-11-24T17:36:47.823Z,4.82
2022-11-24T17:39:21.793Z,5.90
2022-11-24T17:41:55.403Z,4.53
2022-11-24T17:44:24.221Z,5.78
2022-11-24T17:46:53.020Z,4.78
2022-11-24T17:49:24.857Z,5.03
2022-11-24T17:51:54.026Z,5.43
2022-11-24T17:57:12.986Z,5.95
2022-11-24T17:59:42.101Z,5.22
2022-11-24T18:02:11.633Z,5.75
2022-11-24T18:04:40.628Z,5.43
2022-11-24T18:07:09.535Z,5.65
2022-11-24T18:09:39.743Z,5.07
2022-11-24T18:12:09.527Z,5.47
2022-11-24T18:14:39.978Z,4.93
2022-11-24T18:17:12.004Z,5.40
2022-11-24T18:19:47.895Z,5.78
2022-11-24T18:22:36.656Z,5.05
2022-11-24T18:25:11.537Z,5.90
2022-11-24T18:27:42.991Z,5.60
2022-11-24T18:30:13.781Z,5.97
2022-11-24T18:32:42.834Z,5.78
2022-11-24T18:35:14.968Z,5.47
2022-11-24T18:37:44.641Z,5.57
2022-11-24T18:40:13.834Z,5.72
2022-11-24T18:42:45.960Z,5.25
2022-11-24T18:45:19.851Z,5.20
2022-11-24T18:47:53.147Z,5.63
2022-11-24T18:50:22.468Z,5.32
2022-11-24T18:52:51.444Z,4.82
2022-11-24T18:55:20.468Z,5.68
2022-11-24T18:57:49.591Z,4.60
2022-11-24T19:00:20.602Z,5.38
2022-11-24T19:03:04.168Z,5.35
2022-11-24T19:05:33.373Z,5.10
2022-11-24T19:08:05.320Z,4.82
2022-11-24T19:10:37.715Z,4.38
2022-11-24T19:13:06.925Z,5.25
2022-11-24T19:15:38.169Z,5.03
2022-11-24T20:40:21.859Z,4.80
2022-11-24T20:42:50.747Z,6.03
2022-11-24T20:45:20.031Z,5.32
2022-11-24T20:47:49.112Z,5.57
2022-11-24T20:50:21.297Z,6.35
2022-11-24T20:52:50.682Z,5.28
2022-11-24T20:55:21.070Z,6.32
2022-11-24T20:57:54.771Z,4.90
2022-11-24T21:00:23.568Z,4.88
2022-11-24T21:03:05.770Z,5.18
2022-11-24T21:05:34.439Z,5.93
2022-11-24T21:08:33.011Z,5.88
2022-11-24T21:11:04.909Z,5.40
2022-11-24T21:13:36.535Z,6.20
2022-11-24T21:16:14.773Z,6.22
2022-11-24T21:18:44.656Z,6.53
2022-11-24T21:21:14.434Z,7.43
2022-11-24T21:23:45.223Z,6.70
2022-11-24T21:26:17.541Z,7.50
2022-11-24T21:28:56.057Z,7.13
2022-11-24T21:31:25.297Z,5.25
2022-11-24T21:33:55.963Z,7.07
2022-11-24T21:36:29.227Z,5.82
2022-11-24T21:39:03.662Z,5.82
2022-11-24T21:41:37.761Z,4.80
2022-11-24T23:34:19.706Z,6.40
2022-11-24T23:36:48.500Z,6.30
2022-11-24T23:39:17.272Z,6.20
2022-11-24T23:41:46.569Z,5.50
2022-11-24T23:44:15.477Z,6.15
2022-11-24T23:46:44.196Z,6.53
2022-11-24T23:49:13.451Z,5.88
2022-11-24T23:51:44.020Z,6.47
2022-11-24T23:54:12.747Z,6.10
2022-11-24T23:56:41.394Z,6.13
2022-11-24T23:59:13.067Z,5.70
